Aquapuelche — D5NA5 — position and weather

sailwx.info

Track history (hours):
 
Tides and Currents Weather Stations Pressure Air Temp Water Temp Dewpoint Dewpoint Depression Visibility Wind Speed Wind Dir Waves Ship Positions

Aquapuelche

Last reported at 2018-Jun-22 19:00 UTC. Time now 2018-Jun-22 19:03 UTC.
Position N 33°57' W 122°25'.

Length 244 m; draft 8.7 m.

Type: Tanker. MMSI: 636017857.

Date/timePositionNaut miles runAvg speedWind from/ knotsBaromVisibWave heightAir tempDewpointWater temp
2018-Jun-22 19:00N 33°57' W 122°25'612.6
2018-Jun-22 18:30N 34°02' W 122°28'612.4
2018-Jun-22 18:00N 34°08' W 122°31'612.3
2018-Jun-22 17:30N 34°14' W 122°34'612.3
2018-Jun-22 16:59N 34°20' W 122°37'612.2
2018-Jun-22 16:30N 34°25' W 122°40'612.1
2018-Jun-22 15:59N 34°31' W 122°43'611.7
2018-Jun-22 15:30N 34°36' W 122°46'611.7
2018-Jun-22 15:00N 34°41' W 122°49'611.7
2018-Jun-22 14:30N 34°47' W 122°51'611.5
2018-Jun-22 14:00N 34°52' W 122°54'611.7
2018-Jun-22 13:30N 34°57' W 122°57'612.5
2018-Jun-22 13:00N 35°03' W 123°00'612.6
2018-Jun-22 12:30N 35°09' W 123°03'612.0
2018-Jun-22 12:00N 35°14' W 123°06'612.0
2018-Jun-22 11:30N 35°20' W 123°09'612.2
2018-Jun-22 11:00N 35°25' W 123°12'612.5
2018-Jun-22 10:30N 35°31' W 123°15'612.7
2018-Jun-22 10:00N 35°37' W 123°18'612.6
2018-Jun-22 09:30N 35°43' W 123°20'713.2
2018-Jun-22 09:00N 35°50' W 123°19'713.1
2018-Jun-22 08:30N 35°56' W 123°19'612.8
2018-Jun-22 08:00N 36°03' W 123°18'612.3
2018-Jun-22 07:30N 36°09' W 123°18'612.1
2018-Jun-22 07:00N 36°15' W 123°17'611.9
2018-Jun-22 06:30N 36°21' W 123°17'611.9
2018-Jun-22 06:00N 36°27' W 123°16'611.8
2018-Jun-22 05:30N 36°32' W 123°16'611.5
2018-Jun-22 05:00N 36°38' W 123°15'611.6
2018-Jun-22 04:30N 36°44' W 123°15'611.8
2018-Jun-22 04:00N 36°50' W 123°15'612.1
2018-Jun-22 03:30N 36°56' W 123°14'712.0
2018-Jun-22 02:56N 37°03' W 123°13'512.0
2018-Jun-22 02:30N 37°08' W 123°13'611.9
2018-Jun-22 02:00N 37°14' W 123°13'611.9
2018-Jun-22 01:29N 37°20' W 123°12'611.8
2018-Jun-22 00:59N 37°26' W 123°12'510.5
2018-Jun-22 00:30N 37°31' W 123°10'611.2
2018-Jun-22 00:00N 37°34' W 123°04'510.1
2018-Jun-21 23:30N 37°37' W 122°59'5 9.5
2018-Jun-21 23:00N 37°39' W 122°54'5 9.5
2018-Jun-21 22:30N 37°42' W 122°49'5 9.5
2018-Jun-21 22:00N 37°45' W 122°44'510.4
2018-Jun-21 21:30N 37°46' W 122°38'713.8
2018-Jun-21 21:00N 37°49' W 122°30'510.1
2018-Jun-21 20:31N 37°53' W 122°25'714.1
2018-Jun-21 20:01N 37°60' W 122°25'714.5
2018-Jun-21 19:30N 38°04' W 122°17'712.7
2018-Jun-21 18:59N 38°02' W 122°09'1 0.1
2018-Jun-21 01:41N 38°02' W 122°08'0 0.3
2018-Jun-21 01:30N 38°02' W 122°08'1 1.4
2018-Jun-21 01:00N 38°02' W 122°09'4 7.8
2018-Jun-21 00:28N 38°04' W 122°13'612.4
2018-Jun-21 00:00N 38°03' W 122°21'713.0
2018-Jun-20 23:30N 37°58' W 122°27'613.2
2018-Jun-20 23:00N 37°52' W 122°25'510.9
2018-Jun-20 22:30N 37°47' W 122°22'3 5.0
2018-Jun-20 21:58N 37°44' W 122°21'0 0.0
2018-Jun-20 21:28N 37°44' W 122°21'0 0.0
2018-Jun-20 20:58N 37°44' W 122°21'0 0.1
2018-Jun-20 20:28N 37°44' W 122°21'0 0.1
2018-Jun-20 19:58N 37°44' W 122°21'0 0.1
2018-Jun-20 19:28N 37°44' W 122°21'0 0.1
2018-Jun-20 18:58N 37°45' W 122°21'0 0.1
2018-Jun-20 18:28N 37°45' W 122°21'0 0.0
2018-Jun-20 17:55N 37°45' W 122°21'0 0.0
2018-Jun-20 17:28N 37°45' W 122°21'0 0.0
2018-Jun-20 16:58N 37°45' W 122°21'0 0.0
2018-Jun-20 16:28N 37°45' W 122°21'0 0.0
2018-Jun-20 15:58N 37°45' W 122°21'0 0.0
2018-Jun-20 15:28N 37°45' W 122°21'0 0.1
2018-Jun-20 14:58N 37°45' W 122°21'0 0.0
2018-Jun-20 14:28N 37°45' W 122°21'0 0.2
2018-Jun-20 13:58N 37°44' W 122°21'0 0.3
2018-Jun-20 13:28N 37°44' W 122°21'0 0.0
2018-Jun-20 12:58N 37°44' W 122°21'0 0.0
2018-Jun-20 12:28N 37°44' W 122°21'0 0.0
2018-Jun-20 11:58N 37°44' W 122°21'0 0.0
2018-Jun-20 11:28N 37°44' W 122°21'0 0.0
2018-Jun-20 10:58N 37°44' W 122°21'0 0.0
2018-Jun-20 10:28N 37°44' W 122°21'0 0.1
2018-Jun-20 09:58N 37°44' W 122°21'0 0.1
2018-Jun-20 09:28N 37°44' W 122°21'0 0.1
2018-Jun-20 08:58N 37°44' W 122°21'0 0.1
2018-Jun-20 08:28N 37°44' W 122°21'0 0.1
2018-Jun-20 07:58N 37°44' W 122°21'0 0.2
2018-Jun-20 07:28N 37°44' W 122°21'0 0.1
2018-Jun-20 06:58N 37°45' W 122°21'0 0.0
2018-Jun-20 06:28N 37°45' W 122°21'0 0.0
2018-Jun-20 05:58N 37°45' W 122°21'0 0.0
2018-Jun-20 05:28N 37°45' W 122°21'0 0.0
2018-Jun-20 04:58N 37°45' W 122°21'0 0.1
2018-Jun-20 04:28N 37°45' W 122°21'0 0.1
2018-Jun-20 03:58N 37°44' W 122°21'0 0.0
2018-Jun-20 03:28N 37°44' W 122°21'0 0.2
2018-Jun-20 02:58N 37°44' W 122°21'0 0.0
2018-Jun-20 02:28N 37°44' W 122°21'0 0.1
2018-Jun-20 01:58N 37°44' W 122°21'0 0.1
2018-Jun-20 01:28N 37°44' W 122°21'0 0.0
2018-Jun-20 00:58N 37°44' W 122°21'0 0.1
2018-Jun-20 00:28N 37°44' W 122°21'0 0.0
2018-Jun-19 23:58N 37°44' W 122°21'0 0.0
2018-Jun-19 23:28N 37°44' W 122°21'0 0.1
2018-Jun-19 22:58N 37°44' W 122°21'0 0.1
2018-Jun-19 22:28N 37°44' W 122°21'0 0.0
2018-Jun-19 21:58N 37°44' W 122°21'0 0.0
2018-Jun-19 21:28N 37°44' W 122°21'0 0.1
2018-Jun-19 20:58N 37°44' W 122°21'0 0.1
2018-Jun-19 20:28N 37°44' W 122°21'0 0.0
2018-Jun-19 19:58N 37°44' W 122°21'0 0.1
2018-Jun-19 19:28N 37°44' W 122°21'0 0.2
2018-Jun-19 18:58N 37°44' W 122°21'0 0.2
2018-Jun-19 18:28N 37°44' W 122°21'0 0.0
2018-Jun-19 17:58N 37°44' W 122°21'0 0.0
2018-Jun-19 17:28N 37°44' W 122°21'0 0.0
2018-Jun-19 16:58N 37°44' W 122°21'0 0.1
2018-Jun-19 16:28N 37°45' W 122°21'0 0.0
2018-Jun-19 15:58N 37°45' W 122°21'0 0.0
2018-Jun-19 15:28N 37°44' W 122°21'0 0.0
2018-Jun-19 14:58N 37°44' W 122°21'0 0.1
2018-Jun-19 14:28N 37°45' W 122°21'0 0.0
2018-Jun-19 13:58N 37°45' W 122°21'0 0.1
2018-Jun-19 13:28N 37°44' W 122°21'0 0.1
2018-Jun-19 12:58N 37°44' W 122°21'0 0.1
2018-Jun-19 12:28N 37°44' W 122°21'0 0.2
2018-Jun-19 11:58N 37°44' W 122°21'0 0.1
2018-Jun-19 11:28N 37°44' W 122°21'0 0.1
2018-Jun-19 10:58N 37°44' W 122°21'0 0.1
2018-Jun-19 10:28N 37°44' W 122°21'0 0.0
2018-Jun-19 09:58N 37°44' W 122°21'0 0.0
2018-Jun-19 09:28N 37°44' W 122°21'0 0.0
2018-Jun-19 08:58N 37°44' W 122°21'0 0.0
2018-Jun-19 08:28N 37°44' W 122°21'0 0.0
2018-Jun-19 07:58N 37°44' W 122°21'0 0.1
2018-Jun-19 07:28N 37°44' W 122°21'0 0.2
2018-Jun-19 06:58N 37°44' W 122°21'0 0.1
2018-Jun-19 06:28N 37°44' W 122°21'0 0.0
2018-Jun-19 05:58N 37°44' W 122°21'0 0.1
2018-Jun-19 05:28N 37°45' W 122°21'0 0.0
2018-Jun-19 04:58N 37°45' W 122°21'0 0.0
2018-Jun-19 04:28N 37°45' W 122°21'0 0.1
2018-Jun-19 03:58N 37°45' W 122°21'0 0.1
2018-Jun-19 03:28N 37°45' W 122°21'0 0.1
2018-Jun-19 02:58N 37°44' W 122°21'0 0.1
2018-Jun-19 02:28N 37°44' W 122°21'0 0.2
2018-Jun-19 01:58N 37°44' W 122°21'0 0.1
2018-Jun-19 01:28N 37°44' W 122°21'0 0.4
2018-Jun-19 01:00N 37°44' W 122°21'2 4.5
2018-Jun-19 00:30N 37°46' W 122°22'510.2
2018-Jun-19 00:00N 37°51' W 122°24'510.2
2018-Jun-18 23:30N 37°56' W 122°27'4 9.0
2018-Jun-18 23:00N 37°60' W 122°25'4 8.9
2018-Jun-18 22:30N 38°03' W 122°21'4 8.7
2018-Jun-18 22:00N 38°04' W 122°15'4 7.8
2018-Jun-18 21:30N 38°03' W 122°10'3 0.1
2018-Jun-17 11:07N 38°02' W 122°07'0 0.0
2018-Jun-17 10:59N 38°02' W 122°07'1 1.9
2018-Jun-17 10:30N 38°02' W 122°08'4 8.2
2018-Jun-17 09:58N 38°04' W 122°13'510.5
2018-Jun-17 09:30N 38°03' W 122°20'5 9.9
2018-Jun-17 09:00N 38°00' W 122°25'511.1
2018-Jun-17 08:31N 37°55' W 122°27'510.9
2018-Jun-17 08:00N 37°50' W 122°24'4 8.0
2018-Jun-17 07:31N 37°49' W 122°29'713.1
2018-Jun-17 07:01N 37°46' W 122°37'5 9.4
2018-Jun-17 06:31N 37°44' W 122°42'3 6.8
2018-Jun-17 06:01N 37°42' W 122°45'4 7.5
2018-Jun-17 05:30N 37°40' W 122°49'510.1
2018-Jun-17 05:00N 37°37' W 122°55'510.1
2018-Jun-17 04:30N 37°34' W 122°60'510.4
2018-Jun-17 04:00N 37°31' W 123°05'611.1
2018-Jun-17 03:30N 37°27' W 123°10'15 6.7
2018-Jun-17 01:18N 37°13' W 123°15'4 5.8
2018-Jun-17 00:39N 37°10' W 123°14'1 4.2
2018-Jun-17 00:30N 37°09' W 123°13'2 3.3
2018-Jun-16 23:50N 37°07' W 123°12'1 2.6
2018-Jun-16 23:26N 37°06' W 123°12'2 2.6
2018-Jun-16 22:49N 37°04' W 123°11'1 2.6
2018-Jun-16 22:30N 37°04' W 123°11'2 2.7
2018-Jun-16 21:55N 37°02' W 123°10'1 2.4
2018-Jun-16 21:26N 37°01' W 123°10'1 2.3
2018-Jun-16 20:58N 37°00' W 123°10'1 2.4
2018-Jun-16 20:30N 36°59' W 123°09'2 3.4
2018-Jun-16 19:57N 36°57' W 123°09'2 4.2
2018-Jun-16 19:28N 36°55' W 123°08'2 5.2
2018-Jun-16 19:00N 36°53' W 123°07'3 6.2
2018-Jun-16 18:30N 36°50' W 123°05'2 4.1
2018-Jun-16 17:59N 36°48' W 123°05'2 3.6
2018-Jun-16 17:30N 36°46' W 123°04'2 3.8
2018-Jun-16 17:01N 36°45' W 123°03'3 5.4
2018-Jun-16 16:31N 36°42' W 123°02'3 5.7
2018-Jun-16 16:00N 36°39' W 123°01'1 1.2
2018-Jun-16 15:31N 36°39' W 123°02'2 3.1
2018-Jun-16 15:01N 36°41' W 123°03'2 3.3
2018-Jun-16 14:30N 36°42' W 123°04'2 3.4
2018-Jun-16 14:00N 36°43' W 123°05'2 3.5
2018-Jun-16 13:31N 36°45' W 123°07'2 3.6
2018-Jun-16 13:01N 36°46' W 123°08'2 3.5
2018-Jun-16 12:28N 36°47' W 123°10'2 3.5
2018-Jun-16 12:00N 36°49' W 123°11'2 3.5
2018-Jun-16 11:30N 36°50' W 123°12'2 3.5
2018-Jun-16 11:01N 36°52' W 123°13'2 3.4
2018-Jun-16 10:27N 36°53' W 123°15'2 3.3
2018-Jun-16 09:57N 36°55' W 123°16'1 3.3
2018-Jun-16 09:30N 36°56' W 123°17'2 3.2
2018-Jun-16 08:56N 36°57' W 123°18'1 3.4
2018-Jun-16 08:30N 36°58' W 123°19'2 3.5
2018-Jun-16 07:59N 36°60' W 123°20'2 3.7
2018-Jun-16 07:30N 37°01' W 123°22'2 3.4
2018-Jun-16 07:00N 37°03' W 123°23'2 3.4
2018-Jun-16 06:30N 37°04' W 123°24'2 3.3
2018-Jun-16 05:52N 37°06' W 123°26'1 3.2
2018-Jun-16 05:30N 37°07' W 123°27'2 3.2
2018-Jun-16 05:00N 37°08' W 123°28'2 3.5
2018-Jun-16 04:29N 37°10' W 123°29'2 3.6
2018-Jun-16 04:00N 37°11' W 123°30'2 3.5
2018-Jun-16 03:29N 37°13' W 123°32'2 3.6
2018-Jun-16 02:49N 37°15' W 123°33'2 4.2
2018-Jun-16 02:25N 37°16' W 123°35'2 4.3
2018-Jun-16 01:51N 37°18' W 123°37'1 4.4
2018-Jun-16 01:30N 37°19' W 123°38'20 5.6
2018-Jun-15 21:54N 37°02' W 123°24'3 7.0
2018-Jun-15 21:29N 36°60' W 123°22'4 7.2
2018-Jun-15 21:00N 36°57' W 123°19'6 7.2
2018-Jun-15 20:07N 36°51' W 123°15'2 6.8
2018-Jun-15 19:53N 36°50' W 123°13'3 6.7
2018-Jun-15 19:30N 36°48' W 123°12'4 7.0
2018-Jun-15 18:55N 36°45' W 123°09'3 7.2
2018-Jun-15 18:30N 36°42' W 123°06'4 7.2
2018-Jun-15 18:00N 36°39' W 123°04'2 1.7
2018-Jun-15 16:41N 36°38' W 123°02'2 3.4
2018-Jun-15 16:11N 36°39' W 123°03'5 3.7
2018-Jun-15 14:57N 36°43' W 123°06'6 4.0
2018-Jun-15 13:24N 36°48' W 123°11'4 3.9
2018-Jun-15 12:20N 36°51' W 123°14'15 0.5
2018-Jun-14 08:34N 37°00' W 123°29'0 3.9
2018-Jun-14 08:30N 37°00' W 123°29'2 3.7
2018-Jun-14 08:00N 37°02' W 123°30'2 3.8
2018-Jun-14 07:30N 37°04' W 123°31'2 3.7
2018-Jun-14 06:58N 37°06' W 123°32'2 3.8
2018-Jun-14 06:29N 37°07' W 123°33'2 3.7
2018-Jun-14 06:00N 37°09' W 123°33'2 3.9
2018-Jun-14 05:30N 37°11' W 123°34'2 3.8
2018-Jun-14 04:53N 37°13' W 123°35'2 3.8
2018-Jun-14 04:28N 37°14' W 123°36'2 3.8
2018-Jun-14 04:01N 37°16' W 123°37'2 3.9
2018-Jun-14 03:30N 37°18' W 123°39'2 4.0
2018-Jun-14 03:00N 37°19' W 123°40'2 4.3
2018-Jun-14 02:30N 37°21' W 123°42'3 6.5
2018-Jun-14 02:01N 37°18' W 123°43'6 8.3
2018-Jun-14 01:20N 37°12' W 123°43'3 7.7
2018-Jun-14 01:00N 37°10' W 123°42'3 6.7
2018-Jun-14 00:30N 37°06' W 123°42'3 6.8
2018-Jun-14 00:00N 37°03' W 123°42'4 6.5
2018-Jun-13 23:24N 36°59' W 123°41'11 1.5
2018-Jun-13 16:01N 36°48' W 123°38'0 2.1
2018-Jun-13 15:58N 36°48' W 123°38'1 2.2
2018-Jun-13 15:31N 36°49' W 123°38'24 2.5
2018-Jun-13 05:56N 37°12' W 123°33'1 2.4
2018-Jun-13 05:30N 37°13' W 123°33'1 2.4
2018-Jun-13 05:00N 37°14' W 123°33'1 2.4
2018-Jun-13 04:27N 37°16' W 123°33'1 2.6
2018-Jun-13 04:00N 37°17' W 123°33'1 2.5
2018-Jun-13 03:27N 37°18' W 123°33'2 2.7
2018-Jun-13 02:41N 37°20' W 123°33'3 2.2
2018-Jun-13 01:32N 37°23' W 123°33'2 6.2
2018-Jun-13 01:13N 37°22' W 123°31'2 7.0
2018-Jun-13 01:00N 37°21' W 123°30'4 7.1
2018-Jun-13 00:30N 37°19' W 123°26'4 7.2
2018-Jun-12 23:59N 37°17' W 123°22'4 7.5
2018-Jun-12 23:30N 37°14' W 123°19'4 7.6
2018-Jun-12 23:00N 37°12' W 123°15'1 1.0
2018-Jun-12 22:25N 37°12' W 123°14'1 1.5
2018-Jun-12 21:51N 37°12' W 123°15'1 1.4
2018-Jun-12 21:25N 37°13' W 123°16'  
Track history (hours):
 
Tides and Currents Weather Stations Pressure Air Temp Water Temp Dewpoint Dewpoint Depression Visibility Wind Speed Wind Dir Waves Ship Positions

Aquapuelche

Last reported at 2018-Jun-22 19:00 UTC. Time now 2018-Jun-22 19:03 UTC.
Position N 33°57' W 122°25'.

Length 244 m; draft 8.7 m.

Type: Tanker. MMSI: 636017857.

Date/timePositionNaut miles runAvg speedWind from/ knotsBaromVisibWave heightAir tempDewpointWater temp
2018-Jun-22 19:00N 33°57' W 122°25'612.6
2018-Jun-22 18:30N 34°02' W 122°28'612.4
2018-Jun-22 18:00N 34°08' W 122°31'612.3
2018-Jun-22 17:30N 34°14' W 122°34'612.3
2018-Jun-22 16:59N 34°20' W 122°37'612.2
2018-Jun-22 16:30N 34°25' W 122°40'612.1
2018-Jun-22 15:59N 34°31' W 122°43'611.7
2018-Jun-22 15:30N 34°36' W 122°46'611.7
2018-Jun-22 15:00N 34°41' W 122°49'611.7
2018-Jun-22 14:30N 34°47' W 122°51'611.5
2018-Jun-22 14:00N 34°52' W 122°54'611.7
2018-Jun-22 13:30N 34°57' W 122°57'612.5
2018-Jun-22 13:00N 35°03' W 123°00'612.6
2018-Jun-22 12:30N 35°09' W 123°03'612.0
2018-Jun-22 12:00N 35°14' W 123°06'612.0
2018-Jun-22 11:30N 35°20' W 123°09'612.2
2018-Jun-22 11:00N 35°25' W 123°12'612.5
2018-Jun-22 10:30N 35°31' W 123°15'612.7
2018-Jun-22 10:00N 35°37' W 123°18'612.6
2018-Jun-22 09:30N 35°43' W 123°20'713.2
2018-Jun-22 09:00N 35°50' W 123°19'713.1
2018-Jun-22 08:30N 35°56' W 123°19'612.8
2018-Jun-22 08:00N 36°03' W 123°18'612.3
2018-Jun-22 07:30N 36°09' W 123°18'612.1
2018-Jun-22 07:00N 36°15' W 123°17'611.9
2018-Jun-22 06:30N 36°21' W 123°17'611.9
2018-Jun-22 06:00N 36°27' W 123°16'611.8
2018-Jun-22 05:30N 36°32' W 123°16'611.5
2018-Jun-22 05:00N 36°38' W 123°15'611.6
2018-Jun-22 04:30N 36°44' W 123°15'611.8
2018-Jun-22 04:00N 36°50' W 123°15'612.1
2018-Jun-22 03:30N 36°56' W 123°14'712.0
2018-Jun-22 02:56N 37°03' W 123°13'512.0
2018-Jun-22 02:30N 37°08' W 123°13'611.9
2018-Jun-22 02:00N 37°14' W 123°13'611.9
2018-Jun-22 01:29N 37°20' W 123°12'611.8
2018-Jun-22 00:59N 37°26' W 123°12'510.5
2018-Jun-22 00:30N 37°31' W 123°10'611.2
2018-Jun-22 00:00N 37°34' W 123°04'510.1
2018-Jun-21 23:30N 37°37' W 122°59'5 9.5
2018-Jun-21 23:00N 37°39' W 122°54'5 9.5
2018-Jun-21 22:30N 37°42' W 122°49'5 9.5
2018-Jun-21 22:00N 37°45' W 122°44'510.4
2018-Jun-21 21:30N 37°46' W 122°38'713.8
2018-Jun-21 21:00N 37°49' W 122°30'510.1
2018-Jun-21 20:31N 37°53' W 122°25'714.1
2018-Jun-21 20:01N 37°60' W 122°25'714.5
2018-Jun-21 19:30N 38°04' W 122°17'712.7
2018-Jun-21 18:59N 38°02' W 122°09'1 0.1
2018-Jun-21 01:41N 38°02' W 122°08'0 0.3
2018-Jun-21 01:30N 38°02' W 122°08'1 1.4
2018-Jun-21 01:00N 38°02' W 122°09'4 7.8
2018-Jun-21 00:28N 38°04' W 122°13'612.4
2018-Jun-21 00:00N 38°03' W 122°21'713.0
2018-Jun-20 23:30N 37°58' W 122°27'613.2
2018-Jun-20 23:00N 37°52' W 122°25'510.9
2018-Jun-20 22:30N 37°47' W 122°22'3 5.0
2018-Jun-20 21:58N 37°44' W 122°21'0 0.0
2018-Jun-20 21:28N 37°44' W 122°21'0 0.0
2018-Jun-20 20:58N 37°44' W 122°21'0 0.1
2018-Jun-20 20:28N 37°44' W 122°21'0 0.1
2018-Jun-20 19:58N 37°44' W 122°21'0 0.1
2018-Jun-20 19:28N 37°44' W 122°21'0 0.1
2018-Jun-20 18:58N 37°45' W 122°21'0 0.1
2018-Jun-20 18:28N 37°45' W 122°21'0 0.0
2018-Jun-20 17:55N 37°45' W 122°21'0 0.0
2018-Jun-20 17:28N 37°45' W 122°21'0 0.0
2018-Jun-20 16:58N 37°45' W 122°21'0 0.0
2018-Jun-20 16:28N 37°45' W 122°21'0 0.0
2018-Jun-20 15:58N 37°45' W 122°21'0 0.0
2018-Jun-20 15:28N 37°45' W 122°21'0 0.1
2018-Jun-20 14:58N 37°45' W 122°21'0 0.0
2018-Jun-20 14:28N 37°45' W 122°21'0 0.2
2018-Jun-20 13:58N 37°44' W 122°21'0 0.3
2018-Jun-20 13:28N 37°44' W 122°21'0 0.0
2018-Jun-20 12:58N 37°44' W 122°21'0 0.0
2018-Jun-20 12:28N 37°44' W 122°21'0 0.0
2018-Jun-20 11:58N 37°44' W 122°21'0 0.0
2018-Jun-20 11:28N 37°44' W 122°21'0 0.0
2018-Jun-20 10:58N 37°44' W 122°21'0 0.0
2018-Jun-20 10:28N 37°44' W 122°21'0 0.1
2018-Jun-20 09:58N 37°44' W 122°21'0 0.1
2018-Jun-20 09:28N 37°44' W 122°21'0 0.1
2018-Jun-20 08:58N 37°44' W 122°21'0 0.1
2018-Jun-20 08:28N 37°44' W 122°21'0 0.1
2018-Jun-20 07:58N 37°44' W 122°21'0 0.2
2018-Jun-20 07:28N 37°44' W 122°21'0 0.1
2018-Jun-20 06:58N 37°45' W 122°21'0 0.0
2018-Jun-20 06:28N 37°45' W 122°21'0 0.0
2018-Jun-20 05:58N 37°45' W 122°21'0 0.0
2018-Jun-20 05:28N 37°45' W 122°21'0 0.0
2018-Jun-20 04:58N 37°45' W 122°21'0 0.1
2018-Jun-20 04:28N 37°45' W 122°21'0 0.1
2018-Jun-20 03:58N 37°44' W 122°21'0 0.0
2018-Jun-20 03:28N 37°44' W 122°21'0 0.2
2018-Jun-20 02:58N 37°44' W 122°21'0 0.0
2018-Jun-20 02:28N 37°44' W 122°21'0 0.1
2018-Jun-20 01:58N 37°44' W 122°21'0 0.1
2018-Jun-20 01:28N 37°44' W 122°21'0 0.0
2018-Jun-20 00:58N 37°44' W 122°21'0 0.1
2018-Jun-20 00:28N 37°44' W 122°21'0 0.0
2018-Jun-19 23:58N 37°44' W 122°21'0 0.0
2018-Jun-19 23:28N 37°44' W 122°21'0 0.1
2018-Jun-19 22:58N 37°44' W 122°21'0 0.1
2018-Jun-19 22:28N 37°44' W 122°21'0 0.0
2018-Jun-19 21:58N 37°44' W 122°21'0 0.0
2018-Jun-19 21:28N 37°44' W 122°21'0 0.1
2018-Jun-19 20:58N 37°44' W 122°21'0 0.1
2018-Jun-19 20:28N 37°44' W 122°21'0 0.0
2018-Jun-19 19:58N 37°44' W 122°21'0 0.1
2018-Jun-19 19:28N 37°44' W 122°21'0 0.2
2018-Jun-19 18:58N 37°44' W 122°21'0 0.2
2018-Jun-19 18:28N 37°44' W 122°21'0 0.0
2018-Jun-19 17:58N 37°44' W 122°21'0 0.0
2018-Jun-19 17:28N 37°44' W 122°21'0 0.0
2018-Jun-19 16:58N 37°44' W 122°21'0 0.1
2018-Jun-19 16:28N 37°45' W 122°21'0 0.0
2018-Jun-19 15:58N 37°45' W 122°21'0 0.0
2018-Jun-19 15:28N 37°44' W 122°21'0 0.0
2018-Jun-19 14:58N 37°44' W 122°21'0 0.1
2018-Jun-19 14:28N 37°45' W 122°21'0 0.0
2018-Jun-19 13:58N 37°45' W 122°21'0 0.1
2018-Jun-19 13:28N 37°44' W 122°21'0 0.1
2018-Jun-19 12:58N 37°44' W 122°21'0 0.1
2018-Jun-19 12:28N 37°44' W 122°21'0 0.2
2018-Jun-19 11:58N 37°44' W 122°21'0 0.1
2018-Jun-19 11:28N 37°44' W 122°21'0 0.1
2018-Jun-19 10:58N 37°44' W 122°21'0 0.1
2018-Jun-19 10:28N 37°44' W 122°21'0 0.0
2018-Jun-19 09:58N 37°44' W 122°21'0 0.0
2018-Jun-19 09:28N 37°44' W 122°21'0 0.0
2018-Jun-19 08:58N 37°44' W 122°21'0 0.0
2018-Jun-19 08:28N 37°44' W 122°21'0 0.0
2018-Jun-19 07:58N 37°44' W 122°21'0 0.1
2018-Jun-19 07:28N 37°44' W 122°21'0 0.2
2018-Jun-19 06:58N 37°44' W 122°21'0 0.1
2018-Jun-19 06:28N 37°44' W 122°21'0 0.0
2018-Jun-19 05:58N 37°44' W 122°21'0 0.1
2018-Jun-19 05:28N 37°45' W 122°21'0 0.0
2018-Jun-19 04:58N 37°45' W 122°21'0 0.0
2018-Jun-19 04:28N 37°45' W 122°21'0 0.1
2018-Jun-19 03:58N 37°45' W 122°21'0 0.1
2018-Jun-19 03:28N 37°45' W 122°21'0 0.1
2018-Jun-19 02:58N 37°44' W 122°21'0 0.1
2018-Jun-19 02:28N 37°44' W 122°21'0 0.2
2018-Jun-19 01:58N 37°44' W 122°21'0 0.1
2018-Jun-19 01:28N 37°44' W 122°21'0 0.4
2018-Jun-19 01:00N 37°44' W 122°21'2 4.5
2018-Jun-19 00:30N 37°46' W 122°22'510.2
2018-Jun-19 00:00N 37°51' W 122°24'510.2
2018-Jun-18 23:30N 37°56' W 122°27'4 9.0
2018-Jun-18 23:00N 37°60' W 122°25'4 8.9
2018-Jun-18 22:30N 38°03' W 122°21'4 8.7
2018-Jun-18 22:00N 38°04' W 122°15'4 7.8
2018-Jun-18 21:30N 38°03' W 122°10'3 0.1
2018-Jun-17 11:07N 38°02' W 122°07'0 0.0
2018-Jun-17 10:59N 38°02' W 122°07'1 1.9
2018-Jun-17 10:30N 38°02' W 122°08'4 8.2
2018-Jun-17 09:58N 38°04' W 122°13'510.5
2018-Jun-17 09:30N 38°03' W 122°20'5 9.9
2018-Jun-17 09:00N 38°00' W 122°25'511.1
2018-Jun-17 08:31N 37°55' W 122°27'510.9
2018-Jun-17 08:00N 37°50' W 122°24'4 8.0
2018-Jun-17 07:31N 37°49' W 122°29'713.1
2018-Jun-17 07:01N 37°46' W 122°37'5 9.4
2018-Jun-17 06:31N 37°44' W 122°42'3 6.8
2018-Jun-17 06:01N 37°42' W 122°45'4 7.5
2018-Jun-17 05:30N 37°40' W 122°49'510.1
2018-Jun-17 05:00N 37°37' W 122°55'510.1
2018-Jun-17 04:30N 37°34' W 122°60'510.4
2018-Jun-17 04:00N 37°31' W 123°05'611.1
2018-Jun-17 03:30N 37°27' W 123°10'15 6.7
2018-Jun-17 01:18N 37°13' W 123°15'4 5.8
2018-Jun-17 00:39N 37°10' W 123°14'1 4.2
2018-Jun-17 00:30N 37°09' W 123°13'2 3.3
2018-Jun-16 23:50N 37°07' W 123°12'1 2.6
2018-Jun-16 23:26N 37°06' W 123°12'2 2.6
2018-Jun-16 22:49N 37°04' W 123°11'1 2.6
2018-Jun-16 22:30N 37°04' W 123°11'2 2.7
2018-Jun-16 21:55N 37°02' W 123°10'1 2.4
2018-Jun-16 21:26N 37°01' W 123°10'1 2.3
2018-Jun-16 20:58N 37°00' W 123°10'1 2.4
2018-Jun-16 20:30N 36°59' W 123°09'2 3.4
2018-Jun-16 19:57N 36°57' W 123°09'2 4.2
2018-Jun-16 19:28N 36°55' W 123°08'2 5.2
2018-Jun-16 19:00N 36°53' W 123°07'3 6.2
2018-Jun-16 18:30N 36°50' W 123°05'2 4.1
2018-Jun-16 17:59N 36°48' W 123°05'2 3.6
2018-Jun-16 17:30N 36°46' W 123°04'2 3.8
2018-Jun-16 17:01N 36°45' W 123°03'3 5.4
2018-Jun-16 16:31N 36°42' W 123°02'3 5.7
2018-Jun-16 16:00N 36°39' W 123°01'1 1.2
2018-Jun-16 15:31N 36°39' W 123°02'2 3.1
2018-Jun-16 15:01N 36°41' W 123°03'2 3.3
2018-Jun-16 14:30N 36°42' W 123°04'2 3.4
2018-Jun-16 14:00N 36°43' W 123°05'2 3.5
2018-Jun-16 13:31N 36°45' W 123°07'2 3.6
2018-Jun-16 13:01N 36°46' W 123°08'2 3.5
2018-Jun-16 12:28N 36°47' W 123°10'2 3.5
2018-Jun-16 12:00N 36°49' W 123°11'2 3.5
2018-Jun-16 11:30N 36°50' W 123°12'2 3.5
2018-Jun-16 11:01N 36°52' W 123°13'2 3.4
2018-Jun-16 10:27N 36°53' W 123°15'2 3.3
2018-Jun-16 09:57N 36°55' W 123°16'1 3.3
2018-Jun-16 09:30N 36°56' W 123°17'2 3.2
2018-Jun-16 08:56N 36°57' W 123°18'1 3.4
2018-Jun-16 08:30N 36°58' W 123°19'2 3.5
2018-Jun-16 07:59N 36°60' W 123°20'2 3.7
2018-Jun-16 07:30N 37°01' W 123°22'2 3.4
2018-Jun-16 07:00N 37°03' W 123°23'2 3.4
2018-Jun-16 06:30N 37°04' W 123°24'2 3.3
2018-Jun-16 05:52N 37°06' W 123°26'1 3.2
2018-Jun-16 05:30N 37°07' W 123°27'2 3.2
2018-Jun-16 05:00N 37°08' W 123°28'2 3.5
2018-Jun-16 04:29N 37°10' W 123°29'2 3.6
2018-Jun-16 04:00N 37°11' W 123°30'2 3.5
2018-Jun-16 03:29N 37°13' W 123°32'2 3.6
2018-Jun-16 02:49N 37°15' W 123°33'2 4.2
2018-Jun-16 02:25N 37°16' W 123°35'2 4.3
2018-Jun-16 01:51N 37°18' W 123°37'1 4.4
2018-Jun-16 01:30N 37°19' W 123°38'20 5.6
2018-Jun-15 21:54N 37°02' W 123°24'3 7.0
2018-Jun-15 21:29N 36°60' W 123°22'4 7.2
2018-Jun-15 21:00N 36°57' W 123°19'6 7.2
2018-Jun-15 20:07N 36°51' W 123°15'2 6.8
2018-Jun-15 19:53N 36°50' W 123°13'3 6.7
2018-Jun-15 19:30N 36°48' W 123°12'4 7.0
2018-Jun-15 18:55N 36°45' W 123°09'3 7.2
2018-Jun-15 18:30N 36°42' W 123°06'4 7.2
2018-Jun-15 18:00N 36°39' W 123°04'2 1.7
2018-Jun-15 16:41N 36°38' W 123°02'2 3.4
2018-Jun-15 16:11N 36°39' W 123°03'5 3.7
2018-Jun-15 14:57N 36°43' W 123°06'6 4.0
2018-Jun-15 13:24N 36°48' W 123°11'4 3.9
2018-Jun-15 12:20N 36°51' W 123°14'15 0.5
2018-Jun-14 08:34N 37°00' W 123°29'0 3.9
2018-Jun-14 08:30N 37°00' W 123°29'2 3.7
2018-Jun-14 08:00N 37°02' W 123°30'2 3.8
2018-Jun-14 07:30N 37°04' W 123°31'2 3.7
2018-Jun-14 06:58N 37°06' W 123°32'2 3.8
2018-Jun-14 06:29N 37°07' W 123°33'2 3.7
2018-Jun-14 06:00N 37°09' W 123°33'2 3.9
2018-Jun-14 05:30N 37°11' W 123°34'2 3.8
2018-Jun-14 04:53N 37°13' W 123°35'2 3.8
2018-Jun-14 04:28N 37°14' W 123°36'2 3.8
2018-Jun-14 04:01N 37°16' W 123°37'2 3.9
2018-Jun-14 03:30N 37°18' W 123°39'2 4.0
2018-Jun-14 03:00N 37°19' W 123°40'2 4.3
2018-Jun-14 02:30N 37°21' W 123°42'3 6.5
2018-Jun-14 02:01N 37°18' W 123°43'6 8.3
2018-Jun-14 01:20N 37°12' W 123°43'3 7.7
2018-Jun-14 01:00N 37°10' W 123°42'3 6.7
2018-Jun-14 00:30N 37°06' W 123°42'3 6.8
2018-Jun-14 00:00N 37°03' W 123°42'4 6.5
2018-Jun-13 23:24N 36°59' W 123°41'11 1.5
2018-Jun-13 16:01N 36°48' W 123°38'0 2.1
2018-Jun-13 15:58N 36°48' W 123°38'1 2.2
2018-Jun-13 15:31N 36°49' W 123°38'24 2.5
2018-Jun-13 05:56N 37°12' W 123°33'1 2.4
2018-Jun-13 05:30N 37°13' W 123°33'1 2.4
2018-Jun-13 05:00N 37°14' W 123°33'1 2.4
2018-Jun-13 04:27N 37°16' W 123°33'1 2.6
2018-Jun-13 04:00N 37°17' W 123°33'1 2.5
2018-Jun-13 03:27N 37°18' W 123°33'2 2.7
2018-Jun-13 02:41N 37°20' W 123°33'3 2.2
2018-Jun-13 01:32N 37°23' W 123°33'2 6.2
2018-Jun-13 01:13N 37°22' W 123°31'2 7.0
2018-Jun-13 01:00N 37°21' W 123°30'4 7.1
2018-Jun-13 00:30N 37°19' W 123°26'4 7.2
2018-Jun-12 23:59N 37°17' W 123°22'4 7.5
2018-Jun-12 23:30N 37°14' W 123°19'4 7.6
2018-Jun-12 23:00N 37°12' W 123°15'1 1.0
2018-Jun-12 22:25N 37°12' W 123°14'1 1.5
2018-Jun-12 21:51N 37°12' W 123°15'1 1.4
2018-Jun-12 21:25N 37°13' W 123°16'  

Dump ship's entire track history